sensor_id;sensor_type;location;lat;lon;timestamp;pressure;altitude;pressure_sealevel;temperature;humidity
53041;BME280;39326;42.650;23.248;2023-02-15T00:02:13;93683.53;;;0.55;72.88
53041;BME280;39326;42.650;23.248;2023-02-15T00:04:38;93687.00;;;0.37;74.02
53041;BME280;39326;42.650;23.248;2023-02-15T00:07:16;93687.38;;;0.30;74.49
53041;BME280;39326;42.650;23.248;2023-02-15T00:09:45;93701.94;;;0.23;75.38
53041;BME280;39326;42.650;23.248;2023-02-15T00:12:11;93700.84;;;0.10;75.93
53041;BME280;39326;42.650;23.248;2023-02-15T00:14:36;93691.47;;;0.23;74.82
53041;BME280;39326;42.650;23.248;2023-02-15T00:17:02;93701.81;;;0.14;75.71
53041;BME280;39326;42.650;23.248;2023-02-15T00:19:27;93704.34;;;0.05;76.33
53041;BME280;39326;42.650;23.248;2023-02-15T00:21:52;93702.13;;;0.13;76.01
53041;BME280;39326;42.650;23.248;2023-02-15T00:24:19;93711.81;;;0.12;76.40
53041;BME280;39326;42.650;23.248;2023-02-15T00:26:45;93718.47;;;0.23;76.02
53041;BME280;39326;42.650;23.248;2023-02-15T00:29:12;93690.19;;;0.20;75.09
53041;BME280;39326;42.650;23.248;2023-02-15T00:31:38;93696.50;;;0.19;75.60
53041;BME280;39326;42.650;23.248;2023-02-15T00:34:06;93714.84;;;0.19;75.51
53041;BME280;39326;42.650;23.248;2023-02-15T00:36:31;93700.09;;;0.09;76.09
53041;BME280;39326;42.650;23.248;2023-02-15T00:38:57;93701.75;;;0.19;75.62
53041;BME280;39326;42.650;23.248;2023-02-15T00:41:23;93704.97;;;0.16;75.56
53041;BME280;39326;42.650;23.248;2023-02-15T00:43:48;93709.63;;;0.33;74.77
53041;BME280;39326;42.650;23.248;2023-02-15T00:46:13;93707.44;;;0.40;74.72
53041;BME280;39326;42.650;23.248;2023-02-15T00:48:39;93711.50;;;0.46;73.90
53041;BME280;39326;42.650;23.248;2023-02-15T00:51:04;93709.44;;;0.29;75.74
53041;BME280;39326;42.650;23.248;2023-02-15T00:53:30;93696.41;;;0.24;75.15
53041;BME280;39326;42.650;23.248;2023-02-15T00:55:56;93700.88;;;0.24;75.34
53041;BME280;39326;42.650;23.248;2023-02-15T00:58:22;93704.56;;;0.09;76.70
53041;BME280;39326;42.650;23.248;2023-02-15T01:00:48;93711.16;;;0.20;75.91
53041;BME280;39326;42.650;23.248;2023-02-15T01:03:15;93714.16;;;0.14;76.72
53041;BME280;39326;42.650;23.248;2023-02-15T01:05:40;93704.25;;;0.11;77.02
53041;BME280;39326;42.650;23.248;2023-02-15T01:08:06;93698.03;;;0.20;75.85
53041;BME280;39326;42.650;23.248;2023-02-15T01:10:33;93702.41;;;0.11;76.97
53041;BME280;39326;42.650;23.248;2023-02-15T01:12:59;93705.91;;;0.20;76.47
53041;BME280;39326;42.650;23.248;2023-02-15T01:15:24;93699.13;;;0.33;76.08
53041;BME280;39326;42.650;23.248;2023-02-15T01:17:50;93692.63;;;0.30;75.04
53041;BME280;39326;42.650;23.248;2023-02-15T01:20:23;93694.00;;;0.28;75.79
53041;BME280;39326;42.650;23.248;2023-02-15T01:22:50;93684.28;;;0.28;75.51
53041;BME280;39326;42.650;23.248;2023-02-15T01:25:17;93693.88;;;0.33;75.15
53041;BME280;39326;42.650;23.248;2023-02-15T01:27:43;93694.16;;;0.18;76.65
53041;BME280;39326;42.650;23.248;2023-02-15T01:30:09;93699.63;;;0.35;75.76
53041;BME280;39326;42.650;23.248;2023-02-15T01:32:35;93687.94;;;0.27;76.02
53041;BME280;39326;42.650;23.248;2023-02-15T01:35:01;93683.47;;;0.14;76.17
53041;BME280;39326;42.650;23.248;2023-02-15T01:37:26;93692.84;;;0.01;77.49
53041;BME280;39326;42.650;23.248;2023-02-15T01:39:52;93685.97;;;0.05;77.03
53041;BME280;39326;42.650;23.248;2023-02-15T01:42:23;93681.63;;;0.15;76.42
53041;BME280;39326;42.650;23.248;2023-02-15T01:44:53;93681.34;;;0.16;76.70
53041;BME280;39326;42.650;23.248;2023-02-15T01:47:26;93682.28;;;0.06;76.97
53041;BME280;39326;42.650;23.248;2023-02-15T01:50:17;93671.63;;;0.17;77.10
53041;BME280;39326;42.650;23.248;2023-02-15T01:53:08;93667.53;;;0.11;77.24
53041;BME280;39326;42.650;23.248;2023-02-15T01:55:47;93675.53;;;-0.13;78.48
53041;BME280;39326;42.650;23.248;2023-02-15T01:58:16;93669.25;;;0.01;77.45
53041;BME280;39326;42.650;23.248;2023-02-15T02:00:42;93641.69;;;-0.10;77.92
53041;BME280;39326;42.650;23.248;2023-02-15T02:03:08;93669.00;;;0.03;77.40
53041;BME280;39326;42.650;23.248;2023-02-15T02:05:34;93664.31;;;-0.00;78.27
53041;BME280;39326;42.650;23.248;2023-02-15T02:08:01;93667.34;;;0.07;77.96
53041;BME280;39326;42.650;23.248;2023-02-15T02:10:27;93666.78;;;0.10;76.90
53041;BME280;39326;42.650;23.248;2023-02-15T02:13:04;93663.38;;;0.09;76.84
53041;BME280;39326;42.650;23.248;2023-02-15T02:33:06;93684.00;;;0.44;75.13
53041;BME280;39326;42.650;23.248;2023-02-15T02:40:55;93670.09;;;0.29;75.75
53041;BME280;39326;42.650;23.248;2023-02-15T02:43:44;93675.91;;;0.26;76.43
53041;BME280;39326;42.650;23.248;2023-02-15T02:46:24;93683.78;;;0.26;76.07
53041;BME280;39326;42.650;23.248;2023-02-15T02:48:52;93678.16;;;0.33;76.47
53041;BME280;39326;42.650;23.248;2023-02-15T02:51:18;93680.00;;;0.32;75.32
53041;BME280;39326;42.650;23.248;2023-02-15T02:53:49;93681.38;;;0.30;75.51
53041;BME280;39326;42.650;23.248;2023-02-15T02:56:40;93679.88;;;0.10;76.64
53041;BME280;39326;42.650;23.248;2023-02-15T02:59:19;93679.28;;;0.13;76.28
53041;BME280;39326;42.650;23.248;2023-02-15T03:02:16;93682.53;;;0.24;75.69
53041;BME280;39326;42.650;23.248;2023-02-15T03:04:48;93675.97;;;0.07;76.78
53041;BME280;39326;42.650;23.248;2023-02-15T03:07:24;93680.94;;;0.09;77.07
53041;BME280;39326;42.650;23.248;2023-02-15T03:09:52;93701.94;;;0.09;77.25
53041;BME280;39326;42.650;23.248;2023-02-15T03:12:24;93699.81;;;0.25;76.59
53041;BME280;39326;42.650;23.248;2023-02-15T03:17:45;93698.56;;;0.36;76.36
53041;BME280;39326;42.650;23.248;2023-02-15T03:20:33;93694.00;;;0.28;76.07
53041;BME280;39326;42.650;23.248;2023-02-15T03:23:04;93690.69;;;0.36;76.29
53041;BME280;39326;42.650;23.248;2023-02-15T03:25:38;93699.81;;;0.39;75.52
53041;BME280;39326;42.650;23.248;2023-02-15T03:28:11;93703.41;;;0.29;76.42
53041;BME280;39326;42.650;23.248;2023-02-15T03:30:40;93695.53;;;0.15;76.56
53041;BME280;39326;42.650;23.248;2023-02-15T03:33:08;93705.28;;;-0.04;77.79
53041;BME280;39326;42.650;23.248;2023-02-15T03:38:13;93702.72;;;0.23;76.04
53041;BME280;39326;42.650;23.248;2023-02-15T03:40:44;93706.09;;;0.10;76.84
53041;BME280;39326;42.650;23.248;2023-02-15T03:43:57;93698.03;;;0.06;77.62
53041;BME280;39326;42.650;23.248;2023-02-15T03:49:17;93695.25;;;0.17;76.85
53041;BME280;39326;42.650;23.248;2023-02-15T03:51:47;93699.81;;;0.25;76.52
53041;BME280;39326;42.650;23.248;2023-02-15T03:54:22;93705.66;;;0.22;76.93
53041;BME280;39326;42.650;23.248;2023-02-15T03:57:10;93702.72;;;0.23;76.06
53041;BME280;39326;42.650;23.248;2023-02-15T03:59:55;93707.75;;;0.06;77.87
53041;BME280;39326;42.650;23.248;2023-02-15T04:05:27;93704.50;;;0.28;76.54
53041;BME280;39326;42.650;23.248;2023-02-15T04:07:52;93695.34;;;0.39;75.64
53041;BME280;39326;42.650;23.248;2023-02-15T04:10:18;93709.22;;;0.26;77.63
53041;BME280;39326;42.650;23.248;2023-02-15T04:13:01;93712.19;;;0.05;78.50
53041;BME280;39326;42.650;23.248;2023-02-15T04:15:26;93707.25;;;0.04;78.94
53041;BME280;39326;42.650;23.248;2023-02-15T04:18:10;93715.47;;;0.30;77.25
53041;BME280;39326;42.650;23.248;2023-02-15T04:20:36;93721.88;;;0.24;77.60
53041;BME280;39326;42.650;23.248;2023-02-15T04:23:20;93725.25;;;0.11;79.19
53041;BME280;39326;42.650;23.248;2023-02-15T04:26:04;93727.16;;;0.05;79.27
53041;BME280;39326;42.650;23.248;2023-02-15T04:28:30;93729.88;;;0.14;78.89
53041;BME280;39326;42.650;23.248;2023-02-15T04:30:55;93734.66;;;0.12;78.94
53041;BME280;39326;42.650;23.248;2023-02-15T04:33:21;93723.75;;;0.04;79.39
53041;BME280;39326;42.650;23.248;2023-02-15T04:35:46;93723.31;;;-0.16;79.70
53041;BME280;39326;42.650;23.248;2023-02-15T04:38:12;93739.13;;;0.11;78.85
53041;BME280;39326;42.650;23.248;2023-02-15T04:40:37;93746.38;;;0.00;80.14
53041;BME280;39326;42.650;23.248;2023-02-15T04:43:03;93748.81;;;-0.03;80.06
53041;BME280;39326;42.650;23.248;2023-02-15T04:45:28;93749.22;;;0.04;79.23
53041;BME280;39326;42.650;23.248;2023-02-15T04:47:53;93748.25;;;0.14;79.13
53041;BME280;39326;42.650;23.248;2023-02-15T04:50:19;93750.94;;;0.08;79.36
53041;BME280;39326;42.650;23.248;2023-02-15T04:52:44;93746.31;;;0.19;78.17
53041;BME280;39326;42.650;23.248;2023-02-15T04:55:10;93748.50;;;0.31;78.18
53041;BME280;39326;42.650;23.248;2023-02-15T04:57:35;93744.78;;;0.18;78.72
53041;BME280;39326;42.650;23.248;2023-02-15T05:00:01;93751.28;;;0.21;78.91
53041;BME280;39326;42.650;23.248;2023-02-15T05:02:26;93750.72;;;0.24;78.62
53041;BME280;39326;42.650;23.248;2023-02-15T05:04:51;93738.34;;;0.11;78.74
53041;BME280;39326;42.650;23.248;2023-02-15T05:07:17;93754.97;;;0.20;78.79
53041;BME280;39326;42.650;23.248;2023-02-15T05:09:45;93759.03;;;0.12;79.39
53041;BME280;39326;42.650;23.248;2023-02-15T05:12:10;93758.81;;;0.08;79.81
53041;BME280;39326;42.650;23.248;2023-02-15T05:14:36;93760.31;;;-0.04;80.53
53041;BME280;39326;42.650;23.248;2023-02-15T05:17:01;93760.66;;;0.08;79.42
53041;BME280;39326;42.650;23.248;2023-02-15T05:19:28;93758.34;;;0.06;79.88
53041;BME280;39326;42.650;23.248;2023-02-15T05:21:54;93760.28;;;0.15;78.80
53041;BME280;39326;42.650;23.248;2023-02-15T05:24:20;93758.94;;;-0.15;80.79
53041;BME280;39326;42.650;23.248;2023-02-15T05:27:04;93764.44;;;0.02;80.39
53041;BME280;39326;42.650;23.248;2023-02-15T05:29:48;93768.44;;;0.13;79.75
53041;BME280;39326;42.650;23.248;2023-02-15T05:32:13;93766.09;;;-0.02;79.88
53041;BME280;39326;42.650;23.248;2023-02-15T05:34:39;93765.63;;;0.09;79.22
53041;BME280;39326;42.650;23.248;2023-02-15T05:37:05;93780.78;;;0.13;79.10
53041;BME280;39326;42.650;23.248;2023-02-15T05:39:30;93788.53;;;0.04;79.48
53041;BME280;39326;42.650;23.248;2023-02-15T05:41:59;93789.66;;;0.17;79.37
53041;BME280;39326;42.650;23.248;2023-02-15T05:44:24;93784.59;;;0.20;78.82
53041;BME280;39326;42.650;23.248;2023-02-15T05:46:50;93786.81;;;0.13;79.85
53041;BME280;39326;42.650;23.248;2023-02-15T05:49:15;93795.03;;;0.06;80.07
53041;BME280;39326;42.650;23.248;2023-02-15T05:51:41;93791.88;;;0.09;80.08
53041;BME280;39326;42.650;23.248;2023-02-15T05:54:06;93781.09;;;0.11;79.55
53041;BME280;39326;42.650;23.248;2023-02-15T05:56:32;93790.22;;;0.14;78.91
53041;BME280;39326;42.650;23.248;2023-02-15T05:58:57;93789.81;;;0.06;79.65
53041;BME280;39326;42.650;23.248;2023-02-15T06:01:23;93786.41;;;0.06;80.08
53041;BME280;39326;42.650;23.248;2023-02-15T06:03:48;93792.63;;;0.10;79.47
53041;BME280;39326;42.650;23.248;2023-02-15T06:06:14;93790.50;;;0.12;79.49
53041;BME280;39326;42.650;23.248;2023-02-15T06:08:40;93793.38;;;0.29;78.71
53041;BME280;39326;42.650;23.248;2023-02-15T06:11:06;93794.56;;;0.37;77.94
53041;BME280;39326;42.650;23.248;2023-02-15T06:13:33;93797.47;;;0.35;77.69
53041;BME280;39326;42.650;23.248;2023-02-15T06:15:58;93789.00;;;0.25;78.32
53041;BME280;39326;42.650;23.248;2023-02-15T06:18:24;93794.91;;;0.17;78.42
53041;BME280;39326;42.650;23.248;2023-02-15T06:20:49;93789.06;;;0.20;78.84
53041;BME280;39326;42.650;23.248;2023-02-15T06:23:15;93795.97;;;0.16;78.70
53041;BME280;39326;42.650;23.248;2023-02-15T06:25:41;93806.88;;;0.23;78.56
53041;BME280;39326;42.650;23.248;2023-02-15T06:28:07;93806.50;;;0.29;77.75
53041;BME280;39326;42.650;23.248;2023-02-15T06:30:32;93802.88;;;0.25;78.73
53041;BME280;39326;42.650;23.248;2023-02-15T06:32:58;93809.44;;;0.42;78.09
53041;BME280;39326;42.650;23.248;2023-02-15T06:35:23;93795.81;;;0.40;77.08
53041;BME280;39326;42.650;23.248;2023-02-15T06:37:49;93795.75;;;0.45;76.98
53041;BME280;39326;42.650;23.248;2023-02-15T06:40:15;93791.19;;;0.50;77.09
53041;BME280;39326;42.650;23.248;2023-02-15T06:42:41;93794.50;;;0.56;76.34
53041;BME280;39326;42.650;23.248;2023-02-15T06:45:08;93787.34;;;0.61;75.85
53041;BME280;39326;42.650;23.248;2023-02-15T06:47:33;93791.53;;;0.76;76.04
53041;BME280;39326;42.650;23.248;2023-02-15T06:49:59;93795.53;;;0.87;75.19
53041;BME280;39326;42.650;23.248;2023-02-15T06:52:24;93796.69;;;0.81;74.79
53041;BME280;39326;42.650;23.248;2023-02-15T06:54:50;93799.63;;;0.80;75.72
53041;BME280;39326;42.650;23.248;2023-02-15T06:57:16;93790.06;;;0.84;74.44
53041;BME280;39326;42.650;23.248;2023-02-15T06:59:41;93792.69;;;0.84;75.14
53041;BME280;39326;42.650;23.248;2023-02-15T07:02:08;93803.78;;;0.81;75.07
53041;BME280;39326;42.650;23.248;2023-02-15T07:04:34;93758.66;;;0.65;74.90
53041;BME280;39326;42.650;23.248;2023-02-15T07:06:59;93791.75;;;1.07;73.79
53041;BME280;39326;42.650;23.248;2023-02-15T07:09:25;93796.13;;;0.98;74.02
53041;BME280;39326;42.650;23.248;2023-02-15T07:11:51;93807.78;;;0.92;74.62
53041;BME280;39326;42.650;23.248;2023-02-15T07:14:35;93797.47;;;0.82;73.82
53041;BME280;39326;42.650;23.248;2023-02-15T07:17:00;93799.63;;;0.94;73.70
53041;BME280;39326;42.650;23.248;2023-02-15T07:19:26;93796.13;;;1.12;73.20
53041;BME280;39326;42.650;23.248;2023-02-15T07:21:51;93797.28;;;1.06;72.41
53041;BME280;39326;42.650;23.248;2023-02-15T07:24:17;93797.28;;;0.92;73.26
53041;BME280;39326;42.650;23.248;2023-02-15T07:26:42;93792.53;;;0.94;74.21
53041;BME280;39326;42.650;23.248;2023-02-15T07:29:08;93799.84;;;1.11;73.95
53041;BME280;39326;42.650;23.248;2023-02-15T07:31:33;93806.16;;;1.10;73.30
53041;BME280;39326;42.650;23.248;2023-02-15T07:33:59;93806.25;;;1.18;72.59
53041;BME280;39326;42.650;23.248;2023-02-15T07:36:24;93805.38;;;1.23;72.80
53041;BME280;39326;42.650;23.248;2023-02-15T07:38:50;93801.19;;;1.36;72.22
53041;BME280;39326;42.650;23.248;2023-02-15T07:41:15;93799.22;;;1.28;72.34
53041;BME280;39326;42.650;23.248;2023-02-15T07:43:42;93787.94;;;1.41;71.42
53041;BME280;39326;42.650;23.248;2023-02-15T07:46:14;93791.94;;;1.38;72.47
53041;BME280;39326;42.650;23.248;2023-02-15T07:48:40;93794.38;;;1.35;72.00
53041;BME280;39326;42.650;23.248;2023-02-15T07:51:07;93792.31;;;1.45;71.31
53041;BME280;39326;42.650;23.248;2023-02-15T07:53:34;93783.94;;;1.43;71.86
53041;BME280;39326;42.650;23.248;2023-02-15T07:56:08;93779.47;;;1.44;71.72
53041;BME280;39326;42.650;23.248;2023-02-15T07:58:35;93786.38;;;1.40;71.45
53041;BME280;39326;42.650;23.248;2023-02-15T08:01:20;93785.03;;;1.29;71.91
53041;BME280;39326;42.650;23.248;2023-02-15T08:03:47;93786.66;;;1.38;71.63
53041;BME280;39326;42.650;23.248;2023-02-15T08:06:12;93782.69;;;1.41;71.48
53041;BME280;39326;42.650;23.248;2023-02-15T08:08:39;93783.94;;;1.43;71.65
53041;BME280;39326;42.650;23.248;2023-02-15T08:14:20;93786.97;;;1.23;71.08
53041;BME280;39326;42.650;23.248;2023-02-15T08:16:51;93799.03;;;1.24;72.02
53041;BME280;39326;42.650;23.248;2023-02-15T08:19:20;93793.88;;;1.19;71.86
53041;BME280;39326;42.650;23.248;2023-02-15T08:21:52;93806.25;;;1.18;72.13
53041;BME280;39326;42.650;23.248;2023-02-15T08:24:20;93795.03;;;1.27;71.69
53041;BME280;39326;42.650;23.248;2023-02-15T08:26:46;93800.03;;;1.28;72.38
53041;BME280;39326;42.650;23.248;2023-02-15T08:29:14;93796.59;;;1.41;71.48
53041;BME280;39326;42.650;23.248;2023-02-15T08:31:40;93799.63;;;1.49;71.73
53041;BME280;39326;42.650;23.248;2023-02-15T08:34:11;93810.31;;;1.66;70.73
53041;BME280;39326;42.650;23.248;2023-02-15T08:36:38;93808.34;;;1.58;70.69
53041;BME280;39326;42.650;23.248;2023-02-15T08:39:05;93806.03;;;1.56;70.17
53041;BME280;39326;42.650;23.248;2023-02-15T08:41:35;93806.41;;;1.63;70.59
53041;BME280;39326;42.650;23.248;2023-02-15T08:44:04;93796.44;;;1.74;70.70
53041;BME280;39326;42.650;23.248;2023-02-15T08:46:32;93803.78;;;1.50;69.65
53041;BME280;39326;42.650;23.248;2023-02-15T08:48:58;93789.66;;;1.59;69.89
53041;BME280;39326;42.650;23.248;2023-02-15T08:51:26;93809.69;;;1.69;69.21
53041;BME280;39326;42.650;23.248;2023-02-15T08:53:54;93808.31;;;1.71;69.41
53041;BME280;39326;42.650;23.248;2023-02-15T08:56:25;93807.34;;;1.81;68.65
53041;BME280;39326;42.650;23.248;2023-02-15T08:58:52;93808.84;;;1.46;68.79
53041;BME280;39326;42.650;23.248;2023-02-15T09:01:20;93806.63;;;1.53;69.94
53041;BME280;39326;42.650;23.248;2023-02-15T09:03:48;93807.91;;;1.42;69.45
53041;BME280;39326;42.650;23.248;2023-02-15T09:06:18;93803.31;;;1.48;69.42
53041;BME280;39326;42.650;23.248;2023-02-15T09:08:44;93812.16;;;1.52;69.51
53041;BME280;39326;42.650;23.248;2023-02-15T09:11:33;93803.38;;;1.56;69.40
53041;BME280;39326;42.650;23.248;2023-02-15T09:14:00;93804.50;;;1.41;69.41
53041;BME280;39326;42.650;23.248;2023-02-15T09:16:28;93804.63;;;1.59;69.16
53041;BME280;39326;42.650;23.248;2023-02-15T09:18:54;93800.72;;;1.70;69.65
53041;BME280;39326;42.650;23.248;2023-02-15T09:21:23;93800.03;;;1.78;68.37
53041;BME280;39326;42.650;23.248;2023-02-15T09:23:55;93808.41;;;1.80;69.11
53041;BME280;39326;42.650;23.248;2023-02-15T09:26:22;93806.41;;;1.63;69.47
53041;BME280;39326;42.650;23.248;2023-02-15T09:28:52;93807.56;;;1.57;68.80
53041;BME280;39326;42.650;23.248;2023-02-15T09:31:22;93803.88;;;1.72;69.39
53041;BME280;39326;42.650;23.248;2023-02-15T09:33:48;93796.34;;;1.79;69.25
53041;BME280;39326;42.650;23.248;2023-02-15T09:36:16;93805.53;;;2.04;68.86
53041;BME280;39326;42.650;23.248;2023-02-15T09:38:44;93808.69;;;1.92;67.72
53041;BME280;39326;42.650;23.248;2023-02-15T09:44:24;93804.25;;;2.02;67.07
53041;BME280;39326;42.650;23.248;2023-02-15T10:03:50;93795.50;;;2.29;66.53
53041;BME280;39326;42.650;23.248;2023-02-15T10:28:06;93779.81;;;2.23;67.27
53041;BME280;39326;42.650;23.248;2023-02-15T10:33:31;93775.81;;;2.26;67.04
53041;BME280;39326;42.650;23.248;2023-02-15T11:03:29;93747.69;;;4.88;57.39
53041;BME280;39326;42.650;23.248;2023-02-15T11:06:05;93735.09;;;4.93;59.36
53041;BME280;39326;42.650;23.248;2023-02-15T11:08:38;93737.53;;;4.99;58.24
53041;BME280;39326;42.650;23.248;2023-02-15T11:11:08;93740.00;;;5.12;57.06
53041;BME280;39326;42.650;23.248;2023-02-15T11:13:43;93745.19;;;4.91;56.07
53041;BME280;39326;42.650;23.248;2023-02-15T11:16:15;93735.28;;;5.47;56.30
53041;BME280;39326;42.650;23.248;2023-02-15T11:18:51;93745.72;;;5.44;54.81
53041;BME280;39326;42.650;23.248;2023-02-15T11:21:32;93744.91;;;5.52;54.41
53041;BME280;39326;42.650;23.248;2023-02-15T11:23:59;93739.44;;;5.57;55.79
53041;BME280;39326;42.650;23.248;2023-02-15T11:29:13;93738.47;;;5.62;54.72
53041;BME280;39326;42.650;23.248;2023-02-15T11:31:46;93729.19;;;5.76;53.48
53041;BME280;39326;42.650;23.248;2023-02-15T11:34:25;93721.16;;;5.64;52.37
53041;BME280;39326;42.650;23.248;2023-02-15T11:36:54;93732.91;;;5.96;52.98
53041;BME280;39326;42.650;23.248;2023-02-15T11:39:21;93728.72;;;5.74;55.04
53041;BME280;39326;42.650;23.248;2023-02-15T11:42:00;93724.50;;;5.73;53.76
53041;BME280;39326;42.650;23.248;2023-02-15T11:44:41;93719.47;;;6.55;53.42
53041;BME280;39326;42.650;23.248;2023-02-15T11:47:11;93721.69;;;6.66;52.62
53041;BME280;39326;42.650;23.248;2023-02-15T11:49:37;93721.94;;;6.73;52.68
53041;BME280;39326;42.650;23.248;2023-02-15T11:52:07;93718.63;;;6.76;51.47
53041;BME280;39326;42.650;23.248;2023-02-15T11:54:39;93710.78;;;6.01;52.73
53041;BME280;39326;42.650;23.248;2023-02-15T11:57:11;93705.03;;;5.78;54.29
53041;BME280;39326;42.650;23.248;2023-02-15T11:59:40;93700.94;;;6.01;53.81
53041;BME280;39326;42.650;23.248;2023-02-15T12:02:26;93705.09;;;5.90;53.22
53041;BME280;39326;42.650;23.248;2023-02-15T12:05:01;93699.09;;;6.47;51.92
53041;BME280;39326;42.650;23.248;2023-02-15T12:07:46;93697.16;;;6.23;52.06
53041;BME280;39326;42.650;23.248;2023-02-15T12:13:13;93684.53;;;6.08;52.19
53041;BME280;39326;42.650;23.248;2023-02-15T12:15:51;93686.16;;;6.00;52.98
53041;BME280;39326;42.650;23.248;2023-02-15T12:18:37;93680.34;;;5.86;53.16
53041;BME280;39326;42.650;23.248;2023-02-15T12:21:10;93685.25;;;5.96;52.97
53041;BME280;39326;42.650;23.248;2023-02-15T12:23:46;93687.91;;;5.96;53.05
53041;BME280;39326;42.650;23.248;2023-02-15T12:26:14;93685.63;;;6.07;53.25
53041;BME280;39326;42.650;23.248;2023-02-15T12:28:44;93674.22;;;6.27;52.41
53041;BME280;39326;42.650;23.248;2023-02-15T12:31:27;93677.22;;;6.05;52.66
53041;BME280;39326;42.650;23.248;2023-02-15T12:33:57;93674.66;;;6.29;53.29
53041;BME280;39326;42.650;23.248;2023-02-15T12:36:25;93672.59;;;6.35;52.93
53041;BME280;39326;42.650;23.248;2023-02-15T12:41:37;93667.16;;;6.19;52.32
53041;BME280;39326;42.650;23.248;2023-02-15T12:44:26;93662.09;;;5.93;52.91
53041;BME280;39326;42.650;23.248;2023-02-15T12:49:29;93651.78;;;6.58;52.22
53041;BME280;39326;42.650;23.248;2023-02-15T12:52:00;93647.63;;;6.36;51.42
53041;BME280;39326;42.650;23.248;2023-02-15T12:54:36;93645.41;;;6.26;52.08
53041;BME280;39326;42.650;23.248;2023-02-15T12:57:26;93640.38;;;6.45;51.94
53041;BME280;39326;42.650;23.248;2023-02-15T13:00:04;93647.16;;;6.92;50.80
53041;BME280;39326;42.650;23.248;2023-02-15T13:02:51;93640.75;;;6.93;50.11
53041;BME280;39326;42.650;23.248;2023-02-15T13:07:50;93641.59;;;6.48;51.58
53041;BME280;39326;42.650;23.248;2023-02-15T13:10:40;93640.09;;;6.83;50.95
53041;BME280;39326;42.650;23.248;2023-02-15T13:13:19;93642.06;;;6.99;50.34
53041;BME280;39326;42.650;23.248;2023-02-15T13:15:50;93638.56;;;6.95;50.95
53041;BME280;39326;42.650;23.248;2023-02-15T13:18:28;93639.41;;;6.87;51.08
53041;BME280;39326;42.650;23.248;2023-02-15T13:20:55;93637.03;;;6.81;50.47
53041;BME280;39326;42.650;23.248;2023-02-15T13:23:28;93639.63;;;5.99;51.98
53041;BME280;39326;42.650;23.248;2023-02-15T13:25:56;93640.34;;;5.88;53.24
53041;BME280;39326;42.650;23.248;2023-02-15T13:28:36;93643.31;;;6.19;52.74
53041;BME280;39326;42.650;23.248;2023-02-15T13:31:03;93646.84;;;6.36;52.36
53041;BME280;39326;42.650;23.248;2023-02-15T13:33:32;93651.50;;;6.26;52.47
53041;BME280;39326;42.650;23.248;2023-02-15T13:36:20;93638.09;;;6.11;51.90
53041;BME280;39326;42.650;23.248;2023-02-15T13:41:42;93651.41;;;5.69;53.51
53041;BME280;39326;42.650;23.248;2023-02-15T13:50:38;93660.78;;;4.57;57.09
53041;BME280;39326;42.650;23.248;2023-02-15T13:53:33;93663.69;;;4.26;59.02
53041;BME280;39326;42.650;23.248;2023-02-15T13:56:21;93672.88;;;4.11;59.08
53041;BME280;39326;42.650;23.248;2023-02-15T13:59:20;93666.19;;;3.79;60.30
53041;BME280;39326;42.650;23.248;2023-02-15T14:01:57;93671.31;;;3.84;60.56
53041;BME280;39326;42.650;23.248;2023-02-15T14:07:19;93673.81;;;3.72;61.31
53041;BME280;39326;42.650;23.248;2023-02-15T14:15:27;93687.78;;;3.72;61.99
53041;BME280;39326;42.650;23.248;2023-02-15T14:18:07;93689.47;;;3.94;60.79
53041;BME280;39326;42.650;23.248;2023-02-15T14:25:56;93686.84;;;3.42;63.37
53041;BME280;39326;42.650;23.248;2023-02-15T14:28:35;93683.25;;;3.12;63.88
53041;BME280;39326;42.650;23.248;2023-02-15T14:31:08;93690.88;;;3.31;63.12
53041;BME280;39326;42.650;23.248;2023-02-15T14:33:40;93693.63;;;3.17;63.79
53041;BME280;39326;42.650;23.248;2023-02-15T14:36:11;93693.28;;;3.10;64.14
53041;BME280;39326;42.650;23.248;2023-02-15T14:41:15;93686.97;;;3.11;64.16
53041;BME280;39326;42.650;23.248;2023-02-15T14:46:25;93679.38;;;3.27;63.45
53041;BME280;39326;42.650;23.248;2023-02-15T14:59:37;93664.75;;;2.95;64.53
53041;BME280;39326;42.650;23.248;2023-02-15T15:04:35;93681.47;;;2.90;64.71
53041;BME280;39326;42.650;23.248;2023-02-15T15:09:34;93674.44;;;2.68;66.03
53041;BME280;39326;42.650;23.248;2023-02-15T15:14:45;93681.44;;;2.82;64.72
53041;BME280;39326;42.650;23.248;2023-02-15T15:17:13;93685.91;;;2.72;65.50
53041;BME280;39326;42.650;23.248;2023-02-15T15:20:00;93683.81;;;2.52;65.95
53041;BME280;39326;42.650;23.248;2023-02-15T15:22:28;93687.22;;;2.52;65.72
53041;BME280;39326;42.650;23.248;2023-02-15T15:25:01;93693.19;;;2.36;67.80
53041;BME280;39326;42.650;23.248;2023-02-15T15:44:01;93702.09;;;2.17;67.25
53041;BME280;39326;42.650;23.248;2023-02-15T15:46:49;93701.03;;;2.27;67.37
53041;BME280;39326;42.650;23.248;2023-02-15T15:49:20;93703.72;;;2.36;65.78
53041;BME280;39326;42.650;23.248;2023-02-15T15:51:47;93701.88;;;2.14;66.78
53041;BME280;39326;42.650;23.248;2023-02-15T15:54:21;93706.69;;;2.12;66.80
53041;BME280;39326;42.650;23.248;2023-02-15T15:57:00;93696.28;;;2.07;67.16
53041;BME280;39326;42.650;23.248;2023-02-15T15:59:30;93703.03;;;1.99;68.27
53041;BME280;39326;42.650;23.248;2023-02-15T16:02:04;93704.47;;;2.05;66.99
53041;BME280;39326;42.650;23.248;2023-02-15T16:04:32;93705.59;;;1.90;67.92
53041;BME280;39326;42.650;23.248;2023-02-15T16:09:41;93701.84;;;1.60;69.29
53041;BME280;39326;42.650;23.248;2023-02-15T16:12:15;93697.63;;;1.73;68.91
53041;BME280;39326;42.650;23.248;2023-02-15T16:14:43;93698.44;;;1.60;69.95
53041;BME280;39326;42.650;23.248;2023-02-15T16:17:22;93701.75;;;1.52;69.77
53041;BME280;39326;42.650;23.248;2023-02-15T16:19:48;93705.66;;;1.54;69.14
53041;BME280;39326;42.650;23.248;2023-02-15T16:22:18;93714.53;;;1.44;70.34
53041;BME280;39326;42.650;23.248;2023-02-15T16:27:22;93718.28;;;1.30;71.56
53041;BME280;39326;42.650;23.248;2023-02-15T16:29:52;93713.69;;;1.35;70.27